createdAt,value
2023-02-19T00:00:07.357Z,60.56
2023-02-19T00:02:36.119Z,61.46
2023-02-19T00:05:06.233Z,61.59
2023-02-19T00:07:33.314Z,62.58
2023-02-19T00:10:00.314Z,62.60
2023-02-19T00:12:28.019Z,63.48
2023-02-19T00:14:56.065Z,63.36
2023-02-19T00:17:23.080Z,64.12
2023-02-19T00:19:50.065Z,63.57
2023-02-19T00:22:16.993Z,64.75
2023-02-19T00:24:43.950Z,64.64
2023-02-19T00:27:11.186Z,63.51
2023-02-19T00:29:38.094Z,63.58
2023-02-19T00:32:05.472Z,64.29
2023-02-19T00:34:32.506Z,64.98
2023-02-19T00:36:59.530Z,65.29
2023-02-19T00:39:26.573Z,65.76
2023-02-19T00:41:53.528Z,64.54
2023-02-19T00:44:23.437Z,64.90
2023-02-19T00:46:50.623Z,64.00
2023-02-19T00:49:26.776Z,64.13
2023-02-19T00:51:54.226Z,63.52
2023-02-19T00:54:24.905Z,64.02
2023-02-19T00:56:52.143Z,63.26
2023-02-19T00:59:19.628Z,63.75
2023-02-19T01:01:50.323Z,63.97
2023-02-19T01:04:17.776Z,63.92
2023-02-19T01:06:45.526Z,64.32
2023-02-19T01:09:12.508Z,64.18
2023-02-19T01:11:39.534Z,64.04
2023-02-19T01:14:06.456Z,63.33
2023-02-19T01:16:33.519Z,63.87
2023-02-19T01:19:00.644Z,64.28
2023-02-19T01:21:30.265Z,64.09
2023-02-19T01:23:59.470Z,65.17
2023-02-19T01:26:29.503Z,64.98
2023-02-19T01:28:57.583Z,64.49
2023-02-19T01:31:25.948Z,64.03
2023-02-19T01:33:55.944Z,63.55
2023-02-19T01:36:25.299Z,63.51
2023-02-19T01:38:53.377Z,63.28
2023-02-19T01:41:23.606Z,64.16
2023-02-19T01:44:17.351Z,63.49
2023-02-19T01:46:48.840Z,63.36
2023-02-19T01:49:19.187Z,63.94
2023-02-19T01:51:50.757Z,64.35
2023-02-19T01:54:21.596Z,64.63
2023-02-19T01:56:52.776Z,64.27
2023-02-19T01:59:19.990Z,64.14
2023-02-19T02:01:46.984Z,63.99
2023-02-19T02:04:15.745Z,64.43
2023-02-19T02:06:52.355Z,64.35
2023-02-19T02:09:38.552Z,64.40
2023-02-19T02:12:05.591Z,63.95
2023-02-19T02:14:38.137Z,63.93
2023-02-19T02:17:23.369Z,64.14
2023-02-19T02:20:14.900Z,64.11
2023-02-19T02:23:22.787Z,65.00
2023-02-19T02:26:25.930Z,64.89
2023-02-19T02:28:58.473Z,64.73
2023-02-19T02:31:39.605Z,64.30
2023-02-19T02:34:21.136Z,64.84
2023-02-19T02:36:54.545Z,64.70
2023-02-19T02:39:25.733Z,64.93
2023-02-19T02:42:16.613Z,65.47
2023-02-19T02:45:04.932Z,65.03
2023-02-19T02:47:44.961Z,64.92
2023-02-19T02:50:18.567Z,64.24
2023-02-19T02:53:07.103Z,64.51
2023-02-19T02:55:38.964Z,64.58
2023-02-19T02:58:07.760Z,64.74
2023-02-19T03:00:55.754Z,63.86
2023-02-19T03:03:26.121Z,63.87
2023-02-19T03:05:57.837Z,63.29
2023-02-19T03:08:31.802Z,64.33
2023-02-19T03:11:24.670Z,64.32
2023-02-19T03:14:28.900Z,64.09
2023-02-19T03:17:21.747Z,64.35
2023-02-19T03:19:52.540Z,65.10
2023-02-19T03:22:25.019Z,65.13
2023-02-19T03:25:47.005Z,65.67
2023-02-19T03:28:17.737Z,66.36
2023-02-19T03:30:52.374Z,65.46
2023-02-19T03:33:24.190Z,65.32
2023-02-19T03:36:00.344Z,66.31
2023-02-19T03:38:37.089Z,67.05
2023-02-19T03:41:25.352Z,66.33
2023-02-19T03:44:17.976Z,66.98
2023-02-19T03:47:12.690Z,66.99
2023-02-19T03:49:57.904Z,67.22
2023-02-19T03:52:42.192Z,66.74
2023-02-19T03:55:24.797Z,66.74
2023-02-19T03:58:03.938Z,66.08
2023-02-19T04:00:52.928Z,66.01
2023-02-19T04:03:37.538Z,65.83
2023-02-19T04:06:17.737Z,65.94
2023-02-19T04:08:49.049Z,65.08
2023-02-19T04:11:19.423Z,65.57
2023-02-19T04:14:01.616Z,65.31
2023-02-19T04:16:30.140Z,65.82
2023-02-19T04:19:06.612Z,66.06
2023-02-19T04:21:35.112Z,66.20
2023-02-19T04:24:07.211Z,66.52
2023-02-19T04:26:35.687Z,66.87
2023-02-19T04:29:02.504Z,66.46
2023-02-19T04:31:35.390Z,66.35
2023-02-19T04:34:04.078Z,66.71
2023-02-19T04:36:33.993Z,66.43
2023-02-19T04:39:00.999Z,66.47
2023-02-19T04:41:28.006Z,66.96
2023-02-19T04:43:54.889Z,66.44
2023-02-19T04:46:21.920Z,67.29
2023-02-19T04:48:48.817Z,67.86
2023-02-19T04:51:15.834Z,68.00
2023-02-19T04:53:43.016Z,67.66
2023-02-19T04:56:12.672Z,67.43
2023-02-19T04:58:39.952Z,66.99
2023-02-19T05:01:07.075Z,66.37
2023-02-19T05:03:39.933Z,66.46
2023-02-19T05:06:09.229Z,66.61
2023-02-19T05:08:36.525Z,66.22
2023-02-19T05:11:06.433Z,64.97
2023-02-19T05:13:33.741Z,65.28
2023-02-19T05:16:14.153Z,65.10
2023-02-19T05:18:41.700Z,64.61
2023-02-19T05:21:09.653Z,64.13
2023-02-19T05:23:37.134Z,64.42
2023-02-19T05:26:08.960Z,64.08
2023-02-19T05:28:35.967Z,63.97
2023-02-19T05:31:09.852Z,63.93
2023-02-19T05:33:38.208Z,63.96
2023-02-19T05:36:10.457Z,65.48
2023-02-19T05:38:38.083Z,64.78
2023-02-19T05:41:10.722Z,64.54
2023-02-19T05:43:39.752Z,63.93
2023-02-19T05:46:07.559Z,63.97
2023-02-19T05:48:34.749Z,64.18
2023-02-19T05:51:06.344Z,64.89
2023-02-19T05:53:33.678Z,64.53
2023-02-19T05:56:00.599Z,64.56
2023-02-19T05:58:28.069Z,64.65
2023-02-19T06:00:55.954Z,64.66
2023-02-19T06:03:23.234Z,65.32
2023-02-19T06:05:50.075Z,65.42
2023-02-19T06:08:17.023Z,66.84
2023-02-19T06:10:43.855Z,65.41
2023-02-19T06:13:10.815Z,66.25
2023-02-19T06:15:38.065Z,66.41
2023-02-19T06:18:05.236Z,66.53
2023-02-19T06:20:33.217Z,66.71
2023-02-19T06:23:00.180Z,66.91
2023-02-19T06:25:26.997Z,70.31
2023-02-19T06:27:53.784Z,67.22
2023-02-19T06:30:20.872Z,64.96
2023-02-19T06:32:47.745Z,65.63
2023-02-19T06:35:14.598Z,63.39
2023-02-19T06:37:41.511Z,62.39
2023-02-19T06:40:08.826Z,61.43
2023-02-19T06:42:35.757Z,60.86
2023-02-19T06:45:02.600Z,60.78
2023-02-19T06:47:32.976Z,58.76
2023-02-19T06:50:00.848Z,58.62
2023-02-19T06:52:28.485Z,58.08
2023-02-19T06:54:55.253Z,57.66
2023-02-19T06:57:22.060Z,56.99
2023-02-19T06:59:48.930Z,56.38
2023-02-19T07:02:18.930Z,54.86
2023-02-19T07:04:45.820Z,54.89
2023-02-19T07:07:13.445Z,53.25
2023-02-19T07:09:40.350Z,52.02
2023-02-19T07:12:08.062Z,50.48
2023-02-19T07:14:34.949Z,47.81
2023-02-19T07:17:01.935Z,44.46
2023-02-19T07:19:28.725Z,44.06
2023-02-19T07:21:55.885Z,42.22
2023-02-19T07:24:22.832Z,42.25
2023-02-19T07:26:49.848Z,42.93
2023-02-19T07:29:16.814Z,41.57
2023-02-19T07:31:43.893Z,41.18
2023-02-19T07:34:10.801Z,41.17
2023-02-19T07:36:37.734Z,39.72
2023-02-19T07:39:04.642Z,39.64
2023-02-19T07:41:32.159Z,39.48
2023-02-19T07:44:18.057Z,40.08
2023-02-19T07:46:45.008Z,40.09
2023-02-19T07:49:11.924Z,40.58
2023-02-19T07:51:57.336Z,40.66
2023-02-19T07:54:24.119Z,41.01
2023-02-19T07:56:51.089Z,41.11
2023-02-19T07:59:19.617Z,40.34
2023-02-19T08:02:05.051Z,41.69
2023-02-19T08:04:31.972Z,41.05
2023-02-19T08:06:58.755Z,38.61
2023-02-19T08:09:25.642Z,39.39
2023-02-19T08:12:11.322Z,37.37
2023-02-19T08:14:58.077Z,36.04
2023-02-19T08:17:25.057Z,35.75
2023-02-19T08:19:52.085Z,36.32
2023-02-19T08:22:19.426Z,35.82
2023-02-19T08:24:46.346Z,34.32
2023-02-19T08:27:13.260Z,33.36
2023-02-19T08:29:40.202Z,32.89
2023-02-19T08:32:07.213Z,32.74
2023-02-19T08:34:34.035Z,31.77
2023-02-19T08:37:02.378Z,31.93
2023-02-19T08:39:29.223Z,30.72
2023-02-19T08:41:55.996Z,31.04
2023-02-19T08:44:22.782Z,32.27
2023-02-19T08:46:49.805Z,30.50
2023-02-19T08:49:16.705Z,30.03
2023-02-19T08:52:02.248Z,30.07
2023-02-19T08:54:30.153Z,29.97
2023-02-19T08:57:15.732Z,30.67
2023-02-19T08:59:42.594Z,29.66
2023-02-19T09:02:10.293Z,28.87
2023-02-19T09:04:37.972Z,28.79
2023-02-19T09:07:08.040Z,30.04
2023-02-19T09:09:37.657Z,29.77
2023-02-19T09:12:08.982Z,29.75
2023-02-19T09:14:36.277Z,28.65
2023-02-19T09:17:05.511Z,28.61
2023-02-19T09:19:33.037Z,29.06
2023-02-19T09:22:00.344Z,28.15
2023-02-19T09:24:27.410Z,29.07
2023-02-19T09:26:55.457Z,28.85
2023-02-19T09:29:25.589Z,28.28
2023-02-19T09:31:57.124Z,28.42
2023-02-19T09:34:25.508Z,28.38
2023-02-19T09:36:52.666Z,29.00
2023-02-19T09:39:20.420Z,28.66
2023-02-19T09:41:55.472Z,27.65
2023-02-19T09:44:29.783Z,28.07
2023-02-19T09:46:57.242Z,27.64
2023-02-19T09:49:32.179Z,27.86
2023-02-19T09:52:07.977Z,28.09
2023-02-19T09:54:37.519Z,28.96
2023-02-19T09:57:04.983Z,28.58
2023-02-19T09:59:41.155Z,28.65
2023-02-19T10:02:17.504Z,27.09
2023-02-19T10:04:46.050Z,28.17
2023-02-19T10:07:18.546Z,28.36
2023-02-19T10:10:02.142Z,26.90
2023-02-19T10:12:32.069Z,27.14
2023-02-19T10:15:11.776Z,27.04
2023-02-19T10:17:38.817Z,28.56
2023-02-19T10:20:06.315Z,27.66
2023-02-19T10:22:37.019Z,27.07
2023-02-19T10:25:22.464Z,27.53
2023-02-19T10:27:49.614Z,26.82
2023-02-19T10:30:29.747Z,27.42
2023-02-19T10:33:02.709Z,27.55
2023-02-19T10:35:31.373Z,27.57
2023-02-19T10:37:58.368Z,28.02
2023-02-19T10:40:27.799Z,27.66
2023-02-19T10:42:59.528Z,28.67
2023-02-19T10:45:50.684Z,27.70
2023-02-19T10:48:28.437Z,28.55
2023-02-19T10:50:58.447Z,27.63
2023-02-19T10:53:41.900Z,27.20
2023-02-19T10:56:13.035Z,28.50
2023-02-19T10:58:42.486Z,28.18
2023-02-19T11:01:16.571Z,27.67
2023-02-19T11:03:43.561Z,27.27
2023-02-19T11:06:14.024Z,27.51
2023-02-19T11:08:52.096Z,27.64
2023-02-19T11:11:23.292Z,27.81
2023-02-19T11:13:50.782Z,28.84
2023-02-19T11:16:18.144Z,27.78
2023-02-19T11:18:54.826Z,28.34
2023-02-19T11:21:33.184Z,28.02
2023-02-19T11:24:02.400Z,29.48
2023-02-19T11:26:35.511Z,27.46
2023-02-19T11:29:17.522Z,29.12
2023-02-19T11:31:44.549Z,29.23
2023-02-19T11:34:13.968Z,29.75
2023-02-19T11:36:41.831Z,28.36
2023-02-19T11:39:17.832Z,29.63
2023-02-19T11:42:14.260Z,29.38
2023-02-19T11:45:05.409Z,30.15
2023-02-19T11:47:44.245Z,28.66
2023-02-19T11:50:11.163Z,28.34
2023-02-19T11:53:12.084Z,29.41
2023-02-19T11:55:57.037Z,27.96
2023-02-19T11:58:48.769Z,28.65
2023-02-19T12:01:40.006Z,27.98
2023-02-19T12:04:37.944Z,27.56
2023-02-19T12:07:49.275Z,27.86
2023-02-19T12:10:48.156Z,28.13
2023-02-19T12:13:45.312Z,28.31
2023-02-19T12:16:26.302Z,28.01
2023-02-19T12:19:02.492Z,27.67
2023-02-19T12:22:13.861Z,30.16
2023-02-19T12:25:25.845Z,28.28
2023-02-19T12:28:39.737Z,29.89
2023-02-19T12:31:32.997Z,29.11
2023-02-19T12:34:21.753Z,28.39
2023-02-19T12:36:54.246Z,28.98
2023-02-19T12:39:39.844Z,29.93
2023-02-19T12:42:44.185Z,29.85
2023-02-19T12:45:37.423Z,34.33
2023-02-19T12:48:43.352Z,31.95
2023-02-19T12:51:21.902Z,30.54
2023-02-19T12:54:03.745Z,31.39
2023-02-19T12:56:45.549Z,29.99
2023-02-19T12:59:22.998Z,29.00
2023-02-19T13:01:57.306Z,28.93
2023-02-19T13:05:22.845Z,29.12
2023-02-19T13:08:07.875Z,28.36
2023-02-19T13:10:40.810Z,30.68
2023-02-19T13:13:22.787Z,31.97
2023-02-19T13:15:59.219Z,32.41
2023-02-19T13:18:49.127Z,32.65
2023-02-19T13:21:38.401Z,33.46
2023-02-19T13:24:15.686Z,33.70
2023-02-19T13:26:49.405Z,34.13
2023-02-19T13:29:31.155Z,34.09
2023-02-19T13:32:19.468Z,34.15
2023-02-19T13:35:23.088Z,34.24
2023-02-19T13:37:50.769Z,34.47
2023-02-19T13:40:39.480Z,34.86
2023-02-19T13:43:28.266Z,34.53
2023-02-19T13:46:02.720Z,34.63
2023-02-19T13:48:35.536Z,35.35
2023-02-19T13:51:18.842Z,35.17
2023-02-19T13:53:45.793Z,35.52
2023-02-19T13:56:31.544Z,36.21
2023-02-19T13:58:58.350Z,36.11
2023-02-19T14:01:49.668Z,36.07
2023-02-19T14:04:48.563Z,36.63
2023-02-19T14:07:15.284Z,36.55
2023-02-19T14:09:44.033Z,36.75
2023-02-19T14:12:10.906Z,36.85
2023-02-19T14:14:41.432Z,37.22
2023-02-19T14:17:17.906Z,37.41
2023-02-19T14:19:51.467Z,37.07
2023-02-19T14:22:50.359Z,37.28
2023-02-19T14:25:32.255Z,37.15
2023-02-19T14:28:28.006Z,36.99
2023-02-19T14:31:01.126Z,37.10
2023-02-19T14:33:35.665Z,37.31
2023-02-19T14:36:18.242Z,37.90
2023-02-19T14:39:22.628Z,37.87
2023-02-19T14:41:58.658Z,37.50
2023-02-19T14:44:29.108Z,38.05
2023-02-19T14:47:20.855Z,38.25
2023-02-19T14:50:00.106Z,37.74
2023-02-19T14:52:34.547Z,38.34
2023-02-19T14:55:10.077Z,38.42
2023-02-19T14:57:41.095Z,38.57
2023-02-19T15:00:27.739Z,38.82
2023-02-19T15:02:57.761Z,39.69
2023-02-19T15:05:30.863Z,40.51
2023-02-19T15:08:09.570Z,39.51
2023-02-19T15:10:36.976Z,39.60
2023-02-19T15:13:08.725Z,39.82
2023-02-19T15:15:43.602Z,39.89
2023-02-19T15:18:20.056Z,40.04
2023-02-19T15:20:47.569Z,40.91
2023-02-19T15:23:22.616Z,48.18
2023-02-19T15:25:50.774Z,42.03
2023-02-19T15:28:26.634Z,41.60
2023-02-19T15:30:59.486Z,42.39
2023-02-19T15:33:28.335Z,41.53
2023-02-19T15:35:58.342Z,42.17
2023-02-19T15:38:26.424Z,42.06
2023-02-19T15:41:25.705Z,41.84
2023-02-19T15:44:13.593Z,42.93
2023-02-19T15:46:41.624Z,54.82
2023-02-19T15:49:17.374Z,52.43
2023-02-19T15:52:03.014Z,42.35
2023-02-19T15:55:03.202Z,42.90
2023-02-19T15:57:35.752Z,42.83
2023-02-19T16:00:32.701Z,43.05
2023-02-19T16:02:59.923Z,43.00
2023-02-19T16:05:29.064Z,42.98
2023-02-19T16:08:14.284Z,43.40
2023-02-19T16:10:52.177Z,43.29
2023-02-19T16:13:24.693Z,43.38
2023-02-19T16:16:07.505Z,43.37
2023-02-19T16:18:35.275Z,43.64
2023-02-19T16:21:23.459Z,43.97
2023-02-19T16:23:57.136Z,44.79
2023-02-19T16:26:24.076Z,45.64
2023-02-19T16:28:53.744Z,44.21
2023-02-19T16:31:23.523Z,44.04
2023-02-19T16:33:51.117Z,44.11
2023-02-19T16:36:32.775Z,45.34
2023-02-19T16:39:08.683Z,45.24
2023-02-19T16:41:41.620Z,45.24
2023-02-19T16:44:32.593Z,45.84
2023-02-19T16:47:04.966Z,47.82
2023-02-19T16:49:32.107Z,46.90
2023-02-19T16:52:04.499Z,46.06
2023-02-19T16:54:31.810Z,47.86
2023-02-19T16:56:58.774Z,47.85
2023-02-19T16:59:25.588Z,47.39
2023-02-19T17:01:52.652Z,47.89
2023-02-19T17:04:19.644Z,48.46
2023-02-19T17:06:47.489Z,48.41
2023-02-19T17:09:14.357Z,48.70
2023-02-19T17:11:41.207Z,48.32
2023-02-19T17:14:08.419Z,49.27
2023-02-19T17:16:40.566Z,48.81
2023-02-19T17:19:16.999Z,48.35
2023-02-19T17:21:45.443Z,48.79
2023-02-19T17:24:12.816Z,49.36
2023-02-19T17:26:39.621Z,48.83
2023-02-19T17:29:08.744Z,49.47
2023-02-19T17:31:35.662Z,48.80
2023-02-19T17:34:02.522Z,48.86
2023-02-19T17:36:32.153Z,49.93
2023-02-19T17:39:00.333Z,50.17
2023-02-19T17:41:27.555Z,50.49
2023-02-19T17:43:54.609Z,50.42
2023-02-19T17:46:25.117Z,52.12
2023-02-19T17:48:52.688Z,51.40
2023-02-19T17:51:20.259Z,54.07
2023-02-19T17:53:47.060Z,53.38
2023-02-19T17:56:25.766Z,52.47
2023-02-19T17:58:53.309Z,51.74
2023-02-19T18:01:20.439Z,52.20
2023-02-19T18:03:47.467Z,53.47
2023-02-19T18:06:14.668Z,54.42
2023-02-19T18:08:48.095Z,52.35
2023-02-19T18:11:15.067Z,53.70
2023-02-19T18:13:41.826Z,53.84
2023-02-19T18:16:09.984Z,54.29
2023-02-19T18:18:37.621Z,53.03
2023-02-19T18:21:07.918Z,52.16
2023-02-19T18:23:34.784Z,51.89
2023-02-19T18:26:01.769Z,52.63
2023-02-19T18:28:28.661Z,52.60
2023-02-19T18:30:55.666Z,52.73
2023-02-19T18:33:22.615Z,54.05
2023-02-19T18:35:50.537Z,52.81
2023-02-19T18:38:17.446Z,53.36
2023-02-19T18:40:44.435Z,52.40
2023-02-19T18:43:11.439Z,52.69
2023-02-19T18:45:39.836Z,53.21
2023-02-19T18:48:06.700Z,53.60
2023-02-19T18:50:35.123Z,53.73
2023-02-19T18:53:02.350Z,53.86
2023-02-19T18:55:29.290Z,53.34
2023-02-19T18:57:56.117Z,53.18
2023-02-19T19:00:26.649Z,53.26
2023-02-19T19:02:58.437Z,53.54
2023-02-19T19:05:26.234Z,53.53
2023-02-19T19:07:54.580Z,53.81
2023-02-19T19:10:22.475Z,53.99
2023-02-19T19:12:49.809Z,53.61
2023-02-19T19:15:18.597Z,54.18
2023-02-19T19:17:46.029Z,54.04
2023-02-19T19:20:14.031Z,53.86
2023-02-19T19:22:40.982Z,54.46
2023-02-19T19:25:08.880Z,54.69
2023-02-19T19:27:35.764Z,54.35
2023-02-19T19:30:04.962Z,54.53
2023-02-19T19:32:31.926Z,54.78
2023-02-19T19:34:58.780Z,55.17
2023-02-19T19:37:28.345Z,54.94
2023-02-19T19:39:56.584Z,55.18
2023-02-19T19:42:24.050Z,55.40
2023-02-19T19:44:50.908Z,55.54
2023-02-19T19:47:17.849Z,55.68
2023-02-19T19:49:47.455Z,55.60
2023-02-19T19:52:14.984Z,55.49
2023-02-19T19:54:45.018Z,55.56
2023-02-19T19:57:12.046Z,55.66
2023-02-19T19:59:39.699Z,56.68
2023-02-19T20:02:07.950Z,56.34
2023-02-19T20:04:35.003Z,56.04
2023-02-19T20:07:02.531Z,56.46
2023-02-19T20:09:29.624Z,56.83
2023-02-19T20:11:57.176Z,56.89
2023-02-19T20:14:25.448Z,56.89
2023-02-19T20:16:53.660Z,56.73
2023-02-19T20:19:21.005Z,56.92
2023-02-19T20:21:53.388Z,57.10
2023-02-19T20:24:28.701Z,57.17
2023-02-19T20:27:00.643Z,57.15
2023-02-19T20:29:29.179Z,57.29
2023-02-19T20:32:00.037Z,57.45
2023-02-19T20:34:46.362Z,57.67
2023-02-19T20:37:13.537Z,57.46
2023-02-19T20:39:40.485Z,57.29
2023-02-19T20:42:07.647Z,56.78
2023-02-19T20:44:34.638Z,57.00
2023-02-19T20:47:01.778Z,57.67
2023-02-19T20:49:30.940Z,57.19
2023-02-19T20:52:01.031Z,57.30
2023-02-19T20:54:30.199Z,57.66
2023-02-19T20:57:00.288Z,57.21
2023-02-19T20:59:30.948Z,57.38
2023-02-19T21:01:59.083Z,57.08
2023-02-19T21:04:26.445Z,57.43
2023-02-19T21:06:53.305Z,57.20
2023-02-19T21:09:20.734Z,57.47
2023-02-19T21:11:48.369Z,57.39
2023-02-19T21:14:15.796Z,57.35
2023-02-19T21:16:42.689Z,57.47
2023-02-19T21:19:09.561Z,57.46
2023-02-19T21:21:36.663Z,57.45
2023-02-19T21:24:03.692Z,57.30
2023-02-19T21:26:56.363Z,57.45
2023-02-19T21:29:23.248Z,57.44
2023-02-19T21:31:52.646Z,57.72
2023-02-19T21:34:22.789Z,57.35
2023-02-19T21:36:49.627Z,57.66
2023-02-19T21:39:18.742Z,57.60
2023-02-19T21:41:46.116Z,58.13
2023-02-19T21:44:13.364Z,58.71
2023-02-19T21:46:40.306Z,58.48
2023-02-19T21:49:07.425Z,59.10
2023-02-19T21:51:40.588Z,58.63
2023-02-19T21:54:09.056Z,58.82
2023-02-19T21:56:37.261Z,58.69
2023-02-19T21:59:04.668Z,58.61
2023-02-19T22:01:35.361Z,58.26
2023-02-19T22:04:02.252Z,58.27
2023-02-19T22:06:30.796Z,57.94
2023-02-19T22:08:59.011Z,58.68
2023-02-19T22:11:44.333Z,58.65
2023-02-19T22:14:11.267Z,58.34
2023-02-19T22:16:38.209Z,58.63
2023-02-19T22:19:05.051Z,58.22
2023-02-19T22:21:35.603Z,58.41
2023-02-19T22:24:03.438Z,57.97
2023-02-19T22:26:35.674Z,58.89
2023-02-19T22:29:07.316Z,59.21
2023-02-19T22:31:35.254Z,58.78
2023-02-19T22:34:02.465Z,58.78
2023-02-19T22:36:31.238Z,58.91
2023-02-19T22:38:58.322Z,58.91
2023-02-19T22:41:26.160Z,58.48
2023-02-19T22:43:57.469Z,58.62
2023-02-19T22:46:26.404Z,58.83
2023-02-19T22:48:53.209Z,58.63
2023-02-19T22:51:22.595Z,59.74
2023-02-19T22:53:52.471Z,59.14
2023-02-19T22:56:20.778Z,60.19
2023-02-19T22:58:47.786Z,62.18
2023-02-19T23:01:15.046Z,63.27
2023-02-19T23:03:49.081Z,64.31
2023-02-19T23:06:17.743Z,65.75
2023-02-19T23:08:44.759Z,67.47
2023-02-19T23:11:13.319Z,69.10
2023-02-19T23:13:42.931Z,70.46
2023-02-19T23:16:09.953Z,72.24
2023-02-19T23:18:36.966Z,70.75
2023-02-19T23:21:03.876Z,72.41
2023-02-19T23:23:30.727Z,71.59
2023-02-19T23:25:57.555Z,72.71
2023-02-19T23:28:25.466Z,73.17
2023-02-19T23:30:52.386Z,72.46
2023-02-19T23:33:19.345Z,74.09
2023-02-19T23:35:46.166Z,72.80
2023-02-19T23:38:13.007Z,71.74
2023-02-19T23:40:40.217Z,72.42
2023-02-19T23:43:09.771Z,71.88
2023-02-19T23:45:36.583Z,72.24
2023-02-19T23:48:03.600Z,72.14
2023-02-19T23:50:30.429Z,71.96
2023-02-19T23:52:59.273Z,71.39
2023-02-19T23:55:26.731Z,70.33
2023-02-19T23:57:53.870Z,70.70
